• Join FlightAware (Why Join?)
  • Login
  • US Flag 
12:29PM EDT


 

Airport Tracker/Info


-or-


 

Live Flight TrackerFlight Track Log ✈ DAL6231 ✈ 20-Apr-2013 ✈ KLGA - CYHZ

Flight Track Log - Related Links

Times and Time Zones

All times are in EDT time to prevent confusion due to time zone crossing. See the DAL6231 flight status page for this flight to view local times or setup timezone preferences in your user account.

Time Position Orientation Groundspeed Altitude Reporting Facility
EDT Latitude Longitude Course Direction KTS MPH feet Rate Location/Type
06:33PM 40.8000 -73.8833 346° North 155 178 1,200  Level New York TRACON
06:34PM 40.8500 -73.9000 346° North 203 234 3,400 2,340 Climbing New York TRACON
06:36PM 40.9722 -73.8558 15° North 231 266 8,400 2,100 Climbing Boston Center
06:37PM 41.0233 -73.7661 53° Northeast 264 304 10,300 1,140 Climbing Boston Center
06:38PM 41.0744 -73.6792 52° Northeast 316 364 11,000 300 Climbing Boston Center
06:39PM 41.1217 -73.5394 66° East 323 372 11,000 180 Level Boston Center
06:40PM 41.1828 -73.4550 46° Northeast 311 358 11,400 960 Climbing Boston Center
06:41PM 41.2464 -73.3594 48° Northeast 325 374 13,000 1,680 Climbing Boston Center
06:42PM 41.3139 -73.2525 50° Northeast 360 414 14,800 1,380 Climbing Boston Center
06:43PM 41.3853 -73.1344 51° Northeast 393 452 16,100 1,320 Climbing Boston Center
06:44PM 41.4633 -72.9608 59° Northeast 437 503 17,800 1,380 Climbing Boston Center
06:45PM 41.5139 -72.8419 60° Northeast 454 522 18,900 1,500 Climbing Boston Center
06:46PM 41.5936 -72.6567 60° Northeast 468 539 20,800 1,680 Climbing Boston Center
06:47PM 41.6647 -72.4983 59° Northeast 479 551 22,300 1,380 Climbing Boston Center
06:48PM 41.7375 -72.3400 58° Northeast 484 557 23,700 1,140 Climbing Boston Center
06:49PM 41.8083 -72.1728 60° Northeast 495 570 24,700 900 Climbing Boston Center
06:50PM 41.8869 -72.0022 58° Northeast 511 588 25,500 780 Climbing Boston Center
06:51PM 41.9717 -71.8342 56° Northeast 528 608 26,300 780 Climbing Boston Center
06:52PM 42.1042 -71.7239 32° Northeast 534 615 27,100 780 Climbing Boston Center
06:53PM 42.2389 -71.6128 31° Northeast 551 634 27,900 600 Climbing Boston Center
06:54PM 42.3717 -71.5100 30° Northeast 576 663 28,400 540 Climbing Boston Center
06:55PM 42.5144 -71.3922 31° Northeast 589 678 29,000 600 Climbing Boston Center
06:56PM 42.6611 -71.2683 32° Northeast 601 692 29,700 720 Climbing Boston Center
06:57PM 42.8078 -71.1467 31° Northeast 606 697 30,500 840 Climbing Boston Center
06:58PM 42.9522 -71.0217 32° Northeast 606 697 31,400 900 Climbing Boston Center
06:59PM 43.0986 -70.8989 31° Northeast 611 703 32,300 900 Climbing Boston Center
07:00PM 43.2406 -70.7756 32° Northeast 611 703 33,300 960 Climbing Boston Center
07:01PM 43.3806 -70.6489 33° Northeast 605 696 34,300 960 Climbing Boston Center
07:02PM 43.4881 -70.4797 49° Northeast 583 671 35,300 840 Climbing Boston Center
07:03PM 43.5742 -70.2878 58° Northeast 577 664 36,000 720 Climbing Boston Center
07:04PM 43.6661 -70.0808 58° Northeast 577 664 36,800 480 Climbing Boston Center
07:05PM 43.7475 -69.8908 59° Northeast 572 658 37,000 60 Climbing Boston Center
07:06PM 43.8347 -69.6969 58° Northeast 577 664 37,000  Level Boston Center
07:07PM 43.9175 -69.5058 59° Northeast 577 664 37,000  Level Boston Center
07:08PM 44.0042 -69.3111 58° Northeast 582 670 37,000  Level Boston Center
07:09PM 44.0881 -69.1131 59° Northeast 587 676 37,000  Level Boston Center
07:10PM 44.1719 -68.9172 59° Northeast 592 681 37,000  Level Boston Center
07:11PM 44.2556 -68.7236 59° Northeast 592 681 37,000  Level Boston Center
07:12PM 44.3233 -68.5656 59° Northeast 592 681 37,000  Level Boston Center
07:13PM 44.4233 -68.3294 59° Northeast 592 681 37,000  Level Boston Center
07:14PM 44.4981 -68.1494 60° Northeast 597 687 37,000  Level Boston Center
07:15PM 44.5783 -67.9539 60° Northeast 590 679 37,000  Level Boston Center
07:16PM 44.6600 -67.7581 60° Northeast 590 679 37,000  Level Boston Center
07:17PM 44.7439 -67.5642 59° Northeast 585 673 37,000  Level Boston Center
07:18PM 44.8167 -67.3500 64° Northeast 580 667 37,000  Level Moncton Center
07:19PM 44.8667 -67.1500 71° East 570 656 37,000  Level Moncton Center
07:20PM 44.9000 -66.9167 79° East 540 621 37,000  Level Moncton Center
07:21PM 44.9000 -66.7333 90° East 530 610 37,000 -240 Level Moncton Center
07:22PM 44.9000 -66.5167 90° East 530 610 36,600 -900 Descending Moncton Center
07:23PM 44.9000 -66.3167 90° East 520 598 35,300 -1,500 Descending Moncton Center
07:24PM 44.9167 -66.1000 84° East 520 598 33,600 -1,920 Descending Moncton Center
07:25PM 44.9167 -65.9167 90° East 520 598 31,500 -2,100 Descending Moncton Center
07:26PM 44.9167 -65.7167 90° East 520 598 29,400 -2,220 Descending Moncton Center
07:27PM 44.9167 -65.5000 90° East 510 587 27,100 -2,220 Descending Moncton Center
07:28PM 44.9167 -65.3167 90° East 500 575 25,000 -2,160 Descending Moncton Center
07:29PM 44.9167 -65.1333 90° East 490 564 22,800 -2,160 Descending Moncton Center
07:30PM 44.9167 -64.9333 90° East 470 541 20,700 -2,100 Descending Moncton Center
07:31PM 44.9167 -64.7667 90° East 450 518 18,700 -2,160 Descending Moncton Center
07:32PM 44.9167 -64.5833 90° East 440 506 16,400 -2,280 Descending Moncton Center
07:33PM 44.9167 -64.4167 90° East 420 483 14,200 -2,160 Descending Moncton Center
07:34PM 44.9167 -64.2500 90° East 410 472 12,100 -1,860 Descending Moncton Center
07:35PM 44.9167 -64.1167 90° East 390 449 10,500 -1,320 Descending Moncton Center
07:36PM 44.9333 -63.9667 81° East 350 403 9,500 -1,500 Descending Moncton Center
07:37PM 44.9667 -63.8500 68° East 340 391 7,500 -1,620 Descending Moncton Center
07:38PM 45.0000 -63.7333 68° East 330 380 6,300 -1,200 Descending Moncton Center
07:39PM 45.0333 -63.6167 68° East 310 357 5,100 -660 Descending Moncton Center
07:40PM 45.0667 -63.5000 68° East 300 345 5,000 -300 Descending Moncton Center
07:41PM 45.0833 -63.4000 77° East 260 299 4,600 -840 Descending Moncton Center
07:42PM 45.0833 -63.3333 90° East 230 265 3,400 -840 Descending Moncton Center
07:43PM 45.0333 -63.3333 180° South 200 230 3,000 -240 Descending Moncton Center
07:44PM 45.0000 -63.3833 227° Southwest 180 207 3,000 -120 Level Moncton Center
07:45PM 44.9667 -63.4000 199° South 150 173 2,800 -540 Descending Moncton Center
07:46PM 44.9333 -63.4333 215° Southwest 130 150 2,000 -780 Descending Moncton Center
07:47PM 44.9000 -63.4500 200° South 130 150 1,300 -660 Descending Moncton Center
07:48PM 44.8833 -63.4833 235° Southwest 130 150 700 -600 Descending Moncton Center